Time;durP1;ratioP1;P1;durP2;ratioP2;P2;SDS_P1;SDS_P2;PMS_P1;PMS_P2;Temp;Humidity;BMP_temperature;BMP_pressure;BME280_temperature;BME280_humidity;BME280_pressure;Samples;Min_cycle;Max_cycle;Signal;HPM_P1;HPM_P2
2022/08/20 00:00:48;;;;;;;9.25;8.45;;;20.00;99.90;;;;;;6340255;22;20407;-82
2022/08/20 00:03:21;;;;;;;16.00;8.20;;;20.00;99.90;;;;;;6337909;22;20026;-82
2022/08/20 00:05:53;;;;;;;8.98;7.75;;;20.00;99.90;;;;;;6339018;22;19995;-82
2022/08/20 00:08:20;;;;;;;10.32;7.72;;;19.90;99.90;;;;;;6337358;22;20026;-82
2022/08/20 00:10:48;;;;;;;8.90;7.25;;;20.00;99.90;;;;;;6338888;22;19995;-82
2022/08/20 00:13:19;;;;;;;8.10;7.30;;;20.00;99.90;;;;;;6338688;22;20014;-82
2022/08/20 00:15:44;;;;;;;9.38;7.28;;;19.90;99.90;;;;;;6338512;22;20086;-82
2022/08/20 00:18:10;;;;;;;8.13;7.22;;;20.00;99.90;;;;;;6338664;22;20038;-82
2022/08/20 00:20:40;;;;;;;12.45;8.02;;;19.90;99.90;;;;;;6338249;22;20315;-81
2022/08/20 00:23:05;;;;;;;8.90;8.07;;;19.90;99.90;;;;;;6338793;22;20053;-83
2022/08/20 00:25:31;;;;;;;8.57;7.78;;;19.90;99.90;;;;;;6338996;22;20252;-81
2022/08/20 00:27:58;;;;;;;7.90;7.30;;;19.90;99.90;;;;;;6338611;22;19999;-82
2022/08/20 00:30:25;;;;;;;7.10;6.50;;;19.90;99.90;;;;;;6337888;22;20403;-82
2022/08/20 00:32:57;;;;;;;10.05;8.55;;;19.90;99.90;;;;;;6338790;22;20010;-81
2022/08/20 00:35:26;;;;;;;12.25;8.52;;;19.90;99.90;;;;;;6338388;22;20094;-81
2022/08/20 00:37:52;;;;;;;9.52;8.57;;;19.90;99.90;;;;;;6337786;22;20010;-81
2022/08/20 00:40:22;;;;;;;9.48;8.50;;;19.80;99.90;;;;;;6338286;22;20044;-80
2022/08/20 00:42:52;;;;;;;9.85;8.95;;;19.90;99.90;;;;;;6338052;22;20014;-81
2022/08/20 00:45:19;;;;;;;9.82;8.82;;;19.90;99.90;;;;;;6337459;22;20020;-81
2022/08/20 00:47:45;;;;;;;10.07;8.93;;;19.80;99.90;;;;;;6337958;22;19999;-81
2022/08/20 00:50:14;;;;;;;14.00;8.82;;;19.70;99.90;;;;;;6338669;22;20010;-81
2022/08/20 00:52:43;;;;;;;11.02;8.95;;;19.70;99.90;;;;;;6338990;22;20003;-81
2022/08/20 00:55:10;;;;;;;11.10;8.18;;;19.70;99.90;;;;;;6339184;22;20014;-82
2022/08/20 00:57:39;;;;;;;8.70;7.72;;;19.70;99.90;;;;;;6338566;22;20082;-81
2022/08/20 01:00:12;;;;;;;10.15;8.43;;;19.70;99.90;;;;;;6341546;22;20082;-83
2022/08/20 01:02:38;;;;;;;10.48;8.38;;;19.70;99.90;;;;;;6341375;22;20029;-82
2022/08/20 01:05:08;;;;;;;10.38;8.05;;;19.60;99.90;;;;;;6338170;22;20415;-82
2022/08/20 01:07:34;;;;;;;11.95;8.32;;;19.60;99.90;;;;;;6338411;22;19999;-83
2022/08/20 01:10:06;;;;;;;10.60;7.85;;;19.60;99.90;;;;;;6338867;22;20003;-82
2022/08/20 01:12:31;;;;;;;10.50;7.97;;;19.50;99.90;;;;;;6337494;22;19999;-82
2022/08/20 01:15:00;;;;;;;8.65;7.85;;;19.50;99.90;;;;;;6339532;22;20082;-81
2022/08/20 01:17:28;;;;;;;9.25;8.25;;;19.40;99.90;;;;;;6338656;22;20007;-82
2022/08/20 01:20:05;;;;;;;8.65;7.78;;;19.40;99.90;;;;;;6313365;22;20002;-83
2022/08/20 01:25:37;;;;;;;9.73;8.82;;;19.40;99.90;;;;;;6341552;22;20021;-81
2022/08/20 01:28:03;;;;;;;11.10;8.40;;;19.40;99.90;;;;;;6341074;22;19999;-81
2022/08/20 01:30:31;;;;;;;9.13;8.20;;;19.40;99.90;;;;;;6341328;22;20229;-80
2022/08/20 01:32:57;;;;;;;10.00;8.20;;;19.40;99.90;;;;;;6340180;22;20469;-80
2022/08/20 01:35:24;;;;;;;9.38;8.57;;;19.50;99.90;;;;;;6341178;22;20006;-82
2022/08/20 01:37:49;;;;;;;10.07;7.55;;;19.50;99.90;;;;;;6341260;22;19998;-81
2022/08/20 01:40:34;;;;;;;11.60;7.75;;;19.40;99.90;;;;;;6339463;22;20013;-80
2022/08/20 01:43:01;;;;;;;15.57;8.75;;;19.40;99.90;;;;;;6341148;22;20017;-80
2022/08/20 01:45:27;;;;;;;12.73;7.22;;;19.40;99.90;;;;;;6340803;22;20368;-79
2022/08/20 01:47:53;;;;;;;14.10;8.25;;;19.30;99.90;;;;;;6339802;22;20081;-81
2022/08/20 01:50:23;;;;;;;9.55;7.03;;;19.30;99.90;;;;;;6341229;22;20011;-80
2022/08/20 01:53:13;;;;;;;11.48;6.78;;;19.20;99.90;;;;;;6341051;22;20011;-81
2022/08/20 01:55:39;;;;;;;;;;;19.10;99.90;;;;;;6341580;22;20002;-81
2022/08/20 01:58:04;;;;;;;9.25;6.28;;;19.10;99.90;;;;;;6340916;22;20381;-81
2022/08/20 02:00:31;;;;;;;6.93;6.10;;;19.00;99.90;;;;;;6340044;22;20083;-82
2022/08/20 02:02:57;;;;;;;10.43;6.85;;;19.00;99.90;;;;;;6341509;22;20090;-83
2022/08/20 02:05:23;;;;;;;8.73;6.35;;;18.90;99.90;;;;;;6345526;22;20323;-83
2022/08/20 02:07:49;;;;;;;11.27;5.82;;;18.80;99.90;;;;;;6347812;22;20010;-81
2022/08/20 02:10:16;;;;;;;13.20;6.13;;;18.90;99.90;;;;;;6347315;22;20441;-83
2022/08/20 02:12:42;;;;;;;12.82;5.53;;;18.90;99.90;;;;;;6343826;22;20090;-81
2022/08/20 02:15:09;;;;;;;4.95;4.35;;;18.80;99.90;;;;;;6315581;22;20331;-80
2022/08/20 02:17:35;;;;;;;13.27;4.57;;;18.90;99.90;;;;;;6341492;22;20415;-80
2022/08/20 02:20:31;;;;;;;6.65;4.70;;;18.80;99.90;;;;;;6342176;22;20105;-80
2022/08/20 02:22:58;;;;;;;7.45;4.55;;;18.70;99.90;;;;;;6337148;22;20043;-81
2022/08/20 02:25:29;;;;;;;12.25;4.78;;;18.70;99.90;;;;;;6342409;22;20025;-80
2022/08/20 02:27:55;;;;;;;;;;;18.60;99.90;;;;;;6342854;22;20046;-81
2022/08/20 02:30:26;;;;;;;9.07;4.90;;;18.60;99.90;;;;;;6339716;22;19899;-80
2022/08/20 02:32:52;;;;;;;10.30;3.78;;;18.50;99.90;;;;;;6341604;22;20064;-81
2022/08/20 02:35:18;;;;;;;6.15;3.92;;;18.50;99.90;;;;;;6344099;22;20045;-81
2022/08/20 02:37:44;;;;;;;11.55;3.85;;;18.40;99.90;;;;;;6361275;22;20003;-80
2022/08/20 02:40:15;;;;;;;7.97;4.18;;;18.40;99.90;;;;;;6363496;22;20055;-82
2022/08/20 02:42:42;;;;;;;6.38;3.67;;;18.30;99.90;;;;;;6364396;22;20006;-82
2022/08/20 02:45:11;;;;;;;6.50;4.00;;;18.30;99.90;;;;;;6363047;22;20017;-81
2022/08/20 02:47:38;;;;;;;9.00;4.78;;;18.30;99.90;;;;;;6366073;22;20006;-81
2022/08/20 02:50:05;;;;;;;7.55;4.90;;;18.30;99.90;;;;;;6365359;22;19987;-79
2022/08/20 02:52:31;;;;;;;8.75;4.75;;;18.30;99.90;;;;;;6364658;22;20033;-81
2022/08/20 02:54:56;;;;;;;8.02;4.60;;;18.30;99.90;;;;;;6344705;22;19999;-80
2022/08/20 02:57:22;;;;;;;6.78;4.40;;;18.20;99.90;;;;;;6341835;22;19998;-80
2022/08/20 02:59:51;;;;;;;9.85;4.90;;;18.20;99.90;;;;;;6341356;22;20315;-80
2022/08/20 03:02:16;;;;;;;7.68;4.75;;;18.20;99.90;;;;;;6339772;22;20003;-79
2022/08/20 03:04:42;;;;;;;7.50;4.85;;;18.10;99.90;;;;;;6339226;22;20040;-81
2022/08/20 03:07:09;;;;;;;11.52;5.28;;;18.10;99.90;;;;;;6341259;22;20005;-81
2022/08/20 03:09:35;;;;;;;9.32;5.20;;;18.00;99.90;;;;;;6344000;22;19999;-82
2022/08/20 03:12:01;;;;;;;11.05;5.15;;;17.90;99.90;;;;;;6339752;22;19995;-80
2022/08/20 03:14:27;;;;;;;5.90;3.83;;;17.90;99.90;;;;;;6340525;22;19999;-81
2022/08/20 03:16:53;;;;;;;10.43;5.20;;;17.80;99.90;;;;;;6340521;22;20009;-81
2022/08/20 03:19:19;;;;;;;7.50;4.38;;;17.80;99.90;;;;;;6339856;22;20073;-80
2022/08/20 03:21:44;;;;;;;6.28;4.88;;;17.80;99.90;;;;;;6340922;22;20423;-80
2022/08/20 03:24:10;;;;;;;10.60;4.20;;;17.70;99.90;;;;;;6339305;22;20347;-80
2022/08/20 03:26:36;;;;;;;8.88;5.38;;;17.70;99.90;;;;;;6338645;22;20023;-80
2022/08/20 03:29:02;;;;;;;13.18;5.63;;;17.70;99.90;;;;;;6339745;22;20002;-80
2022/08/20 03:31:28;;;;;;;10.75;4.88;;;17.70;99.90;;;;;;6339116;22;19995;-80
2022/08/20 03:33:54;;;;;;;7.05;4.72;;;17.70;99.90;;;;;;6339366;22;20124;-80
2022/08/20 03:36:21;;;;;;;6.45;4.95;;;17.70;99.90;;;;;;6340191;22;20438;-80
2022/08/20 03:38:47;;;;;;;10.05;6.03;;;17.60;99.90;;;;;;6339194;22;20017;-80
2022/08/20 03:41:12;;;;;;;7.93;5.18;;;17.60;99.90;;;;;;6338013;22;20022;-79
2022/08/20 03:43:39;;;;;;;6.38;5.38;;;17.50;99.90;;;;;;6339314;22;20007;-79
2022/08/20 03:46:05;;;;;;;11.10;6.65;;;17.50;99.90;;;;;;6338692;22;20037;-79
2022/08/20 03:48:31;;;;;;;14.70;6.47;;;17.40;99.90;;;;;;6339138;22;19999;-80
2022/08/20 03:50:59;;;;;;;8.80;6.10;;;17.40;99.90;;;;;;6339244;22;20365;-80
2022/08/20 03:53:28;;;;;;;6.93;5.38;;;17.30;99.90;;;;;;6339102;22;20052;-80
2022/08/20 03:55:54;;;;;;;9.60;5.97;;;17.30;99.90;;;;;;6339883;22;20015;-80
2022/08/20 03:58:20;;;;;;;6.82;5.38;;;17.30;99.90;;;;;;6338684;22;20434;-79
2022/08/20 04:00:48;;;;;;;7.85;6.18;;;17.80;99.90;;;;;;6338976;22;20002;-80
2022/08/20 04:03:15;;;;;;;15.63;7.30;;;17.20;99.90;;;;;;6339339;22;20014;-79
2022/08/20 04:05:42;;;;;;;9.00;6.68;;;17.20;99.90;;;;;;6339642;22;19998;-80
2022/08/20 04:08:12;;;;;;;8.27;6.68;;;17.20;99.90;;;;;;6338403;22;20056;-80
2022/08/20 04:10:38;;;;;;;9.85;6.38;;;17.10;99.90;;;;;;6338876;22;20073;-80
2022/08/20 04:13:05;;;;;;;7.40;6.63;;;17.10;99.90;;;;;;6338850;22;20037;-80
2022/08/20 04:15:32;;;;;;;9.95;6.55;;;17.10;99.90;;;;;;6338247;22;20003;-80
2022/08/20 04:17:58;;;;;;;8.98;6.38;;;17.00;99.90;;;;;;6339436;22;20030;-79
2022/08/20 04:20:24;;;;;;;13.98;6.10;;;17.10;99.90;;;;;;6338925;22;20003;-80
2022/08/20 04:22:52;;;;;;;13.05;5.20;;;17.10;99.90;;;;;;6337786;22;20026;-80
2022/08/20 04:25:18;;;;;;;6.25;5.22;;;17.00;99.90;;;;;;6338815;22;20063;-80
2022/08/20 04:27:45;;;;;;;5.97;4.93;;;17.00;99.90;;;;;;6339242;22;20407;-79
2022/08/20 04:30:15;;;;;;;10.55;5.88;;;17.00;99.90;;;;;;6337474;22;20006;-79
2022/08/20 04:32:41;;;;;;;8.80;5.40;;;17.00;99.90;;;;;;6338191;22;20031;-80
2022/08/20 04:35:10;;;;;;;13.07;5.70;;;17.00;99.90;;;;;;6339180;22;20296;-80
2022/08/20 04:37:39;;;;;;;8.18;5.18;;;17.00;99.90;;;;;;6339139;22;20463;-79
2022/08/20 04:42:52;;;;;;;18.30;7.93;;;17.00;99.90;;;;;;6338335;22;20083;-79
2022/08/20 04:45:17;;;;;;;13.38;5.85;;;17.00;99.90;;;;;;6338832;22;20374;-79
2022/08/20 04:47:43;;;;;;;5.70;5.10;;;17.00;99.90;;;;;;6339035;22;19998;-79
2022/08/20 04:50:11;;;;;;;5.55;4.90;;;16.90;99.90;;;;;;6338352;22;20003;-79
2022/08/20 04:52:37;;;;;;;5.88;5.28;;;16.90;99.90;;;;;;6339033;22;20003;-80
2022/08/20 04:55:05;;;;;;;6.68;5.40;;;16.90;99.90;;;;;;6338421;22;20400;-79
2022/08/20 04:57:37;;;;;;;10.35;6.47;;;16.80;99.90;;;;;;6338520;22;19999;-80
2022/08/20 05:00:09;;;;;;;8.85;5.57;;;16.80;99.90;;;;;;6340932;22;20007;-80
2022/08/20 05:02:35;;;;;;;9.52;5.85;;;16.80;99.90;;;;;;6338406;22;20073;-80
2022/08/20 05:05:01;;;;;;;8.20;6.05;;;16.80;99.90;;;;;;6337046;22;20053;-80
2022/08/20 05:07:26;;;;;;;7.82;5.70;;;16.80;99.90;;;;;;6338121;22;20013;-80
2022/08/20 05:09:52;;;;;;;11.50;5.55;;;16.70;99.90;;;;;;6337382;22;20045;-80
2022/08/20 05:12:18;;;;;;;9.00;5.65;;;16.70;99.90;;;;;;6337168;22;20361;-81
2022/08/20 05:14:44;;;;;;;8.20;5.40;;;16.70;99.90;;;;;;6338108;22;20003;-79
2022/08/20 05:17:13;;;;;;;9.98;6.03;;;16.70;99.90;;;;;;6338099;22;20005;-80
2022/08/20 05:19:39;;;;;;;6.47;5.88;;;16.70;99.90;;;;;;6337462;22;20477;-80
2022/08/20 05:22:04;;;;;;;11.32;5.55;;;16.70;99.90;;;;;;6338268;22;19995;-80
2022/08/20 05:24:30;;;;;;;7.38;5.50;;;16.70;99.90;;;;;;6336932;22;20007;-79
2022/08/20 05:26:57;;;;;;;7.95;6.47;;;16.70;99.90;;;;;;6337918;22;20121;-80
2022/08/20 05:29:23;;;;;;;9.20;6.60;;;16.80;99.90;;;;;;6337876;22;20007;-80
2022/08/20 05:31:49;;;;;;;6.55;5.85;;;16.80;99.90;;;;;;6337547;22;20060;-80
2022/08/20 05:34:14;;;;;;;5.82;5.32;;;16.80;99.90;;;;;;6338035;22;20006;-80
2022/08/20 05:36:44;;;;;;;7.25;6.07;;;16.80;99.90;;;;;;6338115;22;20051;-80
2022/08/20 05:39:10;;;;;;;7.53;6.20;;;16.80;99.90;;;;;;6336912;22;20014;-80
2022/08/20 05:41:37;;;;;;;13.43;7.70;;;16.90;99.90;;;;;;6339048;22;20044;-80
2022/08/20 05:44:03;;;;;;;9.23;6.22;;;16.90;99.90;;;;;;6337958;22;20026;-80
2022/08/20 05:46:30;;;;;;;8.40;6.53;;;16.90;99.90;;;;;;6337505;22;20003;-80
2022/08/20 05:48:56;;;;;;;11.00;6.93;;;17.00;99.90;;;;;;6338119;22;20034;-81
2022/08/20 05:51:22;;;;;;;8.15;6.78;;;17.00;99.90;;;;;;6337985;22;20006;-80
2022/08/20 05:53:47;;;;;;;8.70;7.30;;;17.10;99.90;;;;;;6337584;22;20318;-81
2022/08/20 05:56:13;;;;;;;12.82;7.05;;;17.10;99.90;;;;;;6338176;22;20088;-80
2022/08/20 05:58:39;;;;;;;10.50;6.88;;;17.20;99.90;;;;;;6338603;22;20068;-80
2022/08/20 06:01:04;;;;;;;7.15;6.55;;;17.20;99.90;;;;;;6338456;22;20002;-80
2022/08/20 06:06:14;;;;;;;15.38;8.55;;;17.30;99.90;;;;;;6338756;22;20064;-80
2022/08/20 06:08:40;;;;;;;11.45;8.70;;;17.40;99.90;;;;;;6339548;22;19998;-80
2022/08/20 06:11:07;;;;;;;11.25;7.80;;;17.50;99.90;;;;;;6340090;22;19999;-80
2022/08/20 06:13:33;;;;;;;15.07;7.70;;;17.40;99.90;;;;;;6339161;22;20010;-80
2022/08/20 06:15:59;;;;;;;17.17;9.35;;;17.60;99.90;;;;;;6339524;22;20003;-80
2022/08/20 06:18:25;;;;;;;9.95;8.30;;;17.70;99.90;;;;;;6339846;22;19994;-81
2022/08/20 06:20:50;;;;;;;12.45;8.40;;;17.80;99.90;;;;;;6339262;22;20044;-81
2022/08/20 06:23:17;;;;;;;11.15;7.18;;;17.80;99.90;;;;;;6340031;22;20040;-81
2022/08/20 06:25:44;;;;;;;9.38;7.72;;;17.80;99.90;;;;;;6340210;22;20466;-81
2022/08/20 06:28:09;;;;;;;8.50;7.68;;;17.90;99.90;;;;;;6339223;22;20044;-80
2022/08/20 06:30:35;;;;;;;9.43;7.93;;;17.90;99.90;;;;;;6312300;22;20476;-80
2022/08/20 06:33:01;;;;;;;11.70;7.47;;;18.00;99.90;;;;;;6340924;22;20323;-80
2022/08/20 06:35:27;;;;;;;10.60;7.70;;;18.00;99.90;;;;;;6339741;22;20009;-80
2022/08/20 06:37:53;;;;;;;9.93;7.50;;;18.10;99.90;;;;;;6340575;22;20003;-80
2022/08/20 06:40:23;;;;;;;13.13;7.55;;;18.20;99.90;;;;;;6340394;22;20030;-80
2022/08/20 06:42:50;;;;;;;13.07;7.30;;;18.20;99.90;;;;;;6339640;22;20010;-80
2022/08/20 06:45:23;;;;;;;8.90;6.82;;;18.20;99.90;;;;;;6340681;22;20078;-80
2022/08/20 06:47:49;;;;;;;11.18;6.35;;;18.30;99.90;;;;;;6340304;22;20009;-80
2022/08/20 06:50:22;;;;;;;9.10;6.25;;;18.30;99.90;;;;;;6339295;22;20003;-79
2022/08/20 06:52:48;;;;;;;15.00;5.90;;;18.40;99.90;;;;;;6340756;22;20011;-80
2022/08/20 06:55:15;;;;;;;16.95;4.78;;;18.40;99.90;;;;;;6340448;22;20013;-80
2022/08/20 06:57:42;;;;;;;7.32;4.20;;;18.40;99.90;;;;;;6340527;22;20010;-80
2022/08/20 07:00:11;;;;;;;11.77;4.28;;;18.50;99.90;;;;;;6340355;22;20002;-80
2022/08/20 07:02:37;;;;;;;14.77;4.57;;;18.60;99.90;;;;;;6340516;22;20427;-80
2022/08/20 07:05:04;;;;;;;12.40;4.93;;;18.60;99.90;;;;;;6339021;22;20487;-80
2022/08/20 07:07:30;;;;;;;9.23;3.97;;;18.70;99.90;;;;;;6340224;22;20074;-80
2022/08/20 07:10:16;;;;;;;5.47;3.53;;;18.80;99.90;;;;;;6339989;22;20026;-79
2022/08/20 07:12:42;;;;;;;5.80;3.17;;;18.90;99.90;;;;;;6341634;22;19999;-80
2022/08/20 07:15:10;;;;;;;8.93;3.13;;;18.90;99.90;;;;;;6342157;22;20089;-80
2022/08/20 07:17:36;;;;;;;13.32;3.88;;;19.00;99.90;;;;;;6346315;22;20057;-79
2022/08/20 07:20:11;;;;;;;7.43;2.72;;;19.10;99.90;;;;;;6365435;22;19982;-79
2022/08/20 07:22:36;;;;;;;6.18;2.20;;;19.20;99.90;;;;;;6366095;22;20006;-79
2022/08/20 07:25:08;;;;;;;4.13;2.28;;;19.30;99.90;;;;;;6364330;22;20034;-79
2022/08/20 07:27:34;;;;;;;8.70;2.70;;;19.30;99.90;;;;;;6362419;22;19995;-79
2022/08/20 07:32:45;;;;;;;4.25;2.15;;;19.50;99.90;;;;;;6363466;22;20438;-79
2022/08/20 07:35:15;;;;;;;9.07;2.40;;;19.50;99.90;;;;;;6362563;22;20021;-78
2022/08/20 07:37:45;;;;;;;9.32;1.95;;;19.60;99.90;;;;;;6346520;22;20346;-79
2022/08/20 07:40:14;;;;;;;8.10;3.22;;;19.60;99.90;;;;;;6338337;22;20407;-79
2022/08/20 07:42:40;;;;;;;10.00;2.38;;;19.60;99.90;;;;;;6339388;22;19999;-79
2022/08/20 07:45:09;;;;;;;10.65;2.83;;;19.70;99.90;;;;;;6338762;22;20406;-79
2022/08/20 07:47:38;;;;;;;7.53;1.88;;;19.80;99.90;;;;;;6338797;22;20070;-79
2022/08/20 07:50:05;;;;;;;9.35;2.30;;;19.90;99.90;;;;;;6338601;22;20010;-79
2022/08/20 07:52:34;;;;;;;6.78;2.03;;;19.90;99.90;;;;;;6337452;22;20070;-78
2022/08/20 07:55:03;;;;;;;6.28;1.90;;;20.00;99.90;;;;;;6339071;22;20003;-78
2022/08/20 07:57:29;;;;;;;5.90;2.78;;;20.00;99.90;;;;;;6338547;22;20360;-77
2022/08/20 07:59:57;;;;;;;8.52;2.33;;;20.10;99.90;;;;;;6338834;22;20014;-78
2022/08/20 08:02:23;;;;;;;9.20;2.58;;;20.10;99.90;;;;;;6339569;22;20010;-77
2022/08/20 08:04:49;;;;;;;10.00;2.00;;;20.10;99.90;;;;;;6339766;22;20015;-77
2022/08/20 08:07:15;;;;;;;6.28;1.83;;;20.20;99.90;;;;;;6337654;22;19995;-79
2022/08/20 08:09:43;;;;;;;4.38;1.80;;;20.10;99.90;;;;;;6339253;22;20055;-77
2022/08/20 08:12:11;;;;;;;7.65;2.35;;;20.20;99.90;;;;;;6338613;22;19998;-79
2022/08/20 08:14:40;;;;;;;8.75;2.20;;;20.20;99.90;;;;;;6337696;22;20003;-78
2022/08/20 08:17:06;;;;;;;9.05;2.17;;;20.30;99.90;;;;;;6338404;22;20030;-78
2022/08/20 08:19:38;;;;;;;8.50;2.22;;;20.40;99.90;;;;;;6337892;22;20418;-77
2022/08/20 08:22:06;;;;;;;8.05;2.03;;;20.50;99.90;;;;;;6337779;22;20034;-78
2022/08/20 08:24:32;;;;;;;7.28;2.20;;;20.60;99.90;;;;;;6337761;22;20018;-79
2022/08/20 08:26:58;;;;;;;11.70;2.88;;;20.70;99.90;;;;;;6338083;22;20030;-78
2022/08/20 08:29:23;;;;;;;8.48;2.22;;;20.70;99.90;;;;;;6337146;22;20011;-79
2022/08/20 08:31:49;;;;;;;18.45;3.47;;;20.80;99.90;;;;;;6338526;22;20040;-77
2022/08/20 08:34:15;;;;;;;6.63;1.88;;;20.80;99.90;;;;;;6338100;22;20395;-77
2022/08/20 08:36:43;;;;;;;7.80;2.17;;;20.90;99.90;;;;;;6337808;22;19999;-77
2022/08/20 08:39:08;;;;;;;4.88;1.80;;;20.90;99.90;;;;;;6338076;22;20057;-77
2022/08/20 08:41:40;;;;;;;9.82;2.50;;;20.90;98.70;;;;;;6337683;22;19995;-77
2022/08/20 08:44:11;;;;;;;8.80;2.33;;;20.90;99.30;;;;;;6338243;22;20035;-77
2022/08/20 08:46:41;;;;;;;5.10;1.88;;;20.90;99.70;;;;;;6338389;22;20028;-77
2022/08/20 08:49:13;;;;;;;5.67;2.00;;;21.00;99.70;;;;;;6337433;22;20003;-79
2022/08/20 08:51:43;;;;;;;7.32;1.70;;;21.10;99.90;;;;;;6338245;22;20736;-77
2022/08/20 08:54:16;;;;;;;7.30;2.13;;;21.20;97.60;;;;;;6338186;22;20006;-78
2022/08/20 08:56:42;;;;;;;7.60;2.10;;;21.20;97.60;;;;;;6337559;22;20007;-77
2022/08/20 08:59:09;;;;;;;10.68;2.80;;;21.30;98.40;;;;;;6338434;22;19999;-78
2022/08/20 09:01:45;;;;;;;11.23;2.35;;;21.30;98.10;;;;;;6338182;22;19998;-77
2022/08/20 09:04:12;;;;;;;10.30;2.08;;;21.30;98.20;;;;;;6337030;22;20014;-77
2022/08/20 09:06:39;;;;;;;11.43;2.47;;;21.40;97.80;;;;;;6338100;22;20073;-77
2022/08/20 09:09:06;;;;;;;5.20;2.10;;;21.50;98.10;;;;;;6338392;22;20003;-77
2022/08/20 09:11:45;;;;;;;8.85;2.25;;;21.50;97.80;;;;;;6337013;22;20103;-77
2022/08/20 09:14:11;;;;;;;7.30;1.98;;;21.50;98.10;;;;;;6337870;22;20007;-77
2022/08/20 09:16:37;;;;;;;7.47;2.42;;;21.50;98.10;;;;;;6337427;22;20369;-78
2022/08/20 09:19:03;;;;;;;8.70;2.08;;;21.50;99.20;;;;;;6338434;22;20076;-77
2022/08/20 09:21:28;;;;;;;5.25;1.60;;;21.60;97.90;;;;;;6337751;22;20083;-77
2022/08/20 09:23:55;;;;;;;5.82;2.08;;;21.60;98.50;;;;;;6337168;22;20015;-78
2022/08/20 09:26:21;;;;;;;10.13;2.38;;;21.60;97.20;;;;;;6337757;22;20019;-77
2022/08/20 09:28:46;;;;;;;5.05;1.75;;;21.70;97.80;;;;;;6338415;22;20095;-76
2022/08/20 09:31:12;;;;;;;5.60;1.80;;;21.80;97.50;;;;;;6337016;22;20026;-76
2022/08/20 09:33:37;;;;;;;6.70;2.08;;;21.90;96.70;;;;;;6338170;22;19999;-77
2022/08/20 09:36:03;;;;;;;6.80;2.15;;;21.90;97.20;;;;;;6337917;22;20002;-77
2022/08/20 09:38:29;;;;;;;6.22;2.10;;;21.90;97.40;;;;;;6336696;22;20014;-78
2022/08/20 09:40:54;;;;;;;7.75;2.20;;;21.90;97.00;;;;;;6339836;22;19998;-78
2022/08/20 09:43:20;;;;;;;10.32;3.10;;;21.90;97.50;;;;;;6339614;22;20089;-77
2022/08/20 09:45:45;;;;;;;9.25;2.58;;;21.90;96.50;;;;;;6338567;22;20014;-78
2022/08/20 09:48:11;;;;;;;8.38;2.03;;;22.00;97.20;;;;;;6339652;22;19998;-77
2022/08/20 09:50:42;;;;;;;5.68;1.90;;;22.10;97.70;;;;;;6339853;22;20370;-77
2022/08/20 09:53:09;;;;;;;8.15;2.25;;;22.10;96.90;;;;;;6338980;22;20055;-78
2022/08/20 09:55:37;;;;;;;10.02;2.88;;;22.10;96.70;;;;;;6340024;22;20011;-77
2022/08/20 09:58:10;;;;;;;7.63;1.92;;;22.20;97.10;;;;;;6339834;22;20010;-76
2022/08/20 10:00:35;;;;;;;7.72;2.92;;;22.20;97.00;;;;;;6339417;22;20025;-76
2022/08/20 10:03:02;;;;;;;5.63;2.28;;;22.40;96.90;;;;;;6339422;22;20311;-76
2022/08/20 10:05:27;;;;;;;4.90;1.85;;;22.50;96.70;;;;;;6339127;22;20026;-76
2022/08/20 10:07:53;;;;;;;6.93;2.45;;;22.70;96.40;;;;;;6338713;22;20045;-77
2022/08/20 10:10:19;;;;;;;6.38;2.03;;;22.80;96.50;;;;;;6339332;22;20323;-77
2022/08/20 10:12:45;;;;;;;8.50;2.95;;;23.00;95.90;;;;;;6339458;22;20403;-75
2022/08/20 10:15:11;;;;;;;6.88;2.17;;;23.10;95.90;;;;;;6338068;22;20070;-77
2022/08/20 10:17:39;;;;;;;7.70;2.22;;;22.90;95.90;;;;;;6340188;22;20002;-77
2022/08/20 10:20:07;;;;;;;5.80;2.42;;;22.90;95.20;;;;;;6339429;22;20003;-77
2022/08/20 10:22:33;;;;;;;9.73;2.95;;;22.70;96.30;;;;;;6339117;22;20420;-77
2022/08/20 10:24:59;;;;;;;8.13;2.58;;;22.70;96.00;;;;;;6338942;22;20042;-77
2022/08/20 10:27:24;;;;;;;5.32;1.98;;;22.60;96.10;;;;;;6338466;22;20003;-77
2022/08/20 10:29:50;;;;;;;12.68;3.35;;;22.60;95.80;;;;;;6340030;22;20085;-77
2022/08/20 10:32:16;;;;;;;6.35;2.13;;;22.50;96.80;;;;;;6339125;22;20367;-78
2022/08/20 10:34:44;;;;;;;10.10;2.22;;;22.50;97.00;;;;;;6338678;22;20430;-77
2022/08/20 10:37:20;;;;;;;7.95;2.47;;;22.50;97.00;;;;;;6339216;22;20082;-77
2022/08/20 10:39:46;;;;;;;4.93;1.80;;;22.60;96.60;;;;;;6339372;22;20019;-77
2022/08/20 10:42:12;;;;;;;5.82;2.40;;;22.60;96.30;;;;;;6338203;22;19999;-78
2022/08/20 10:44:38;;;;;;;11.00;2.25;;;22.70;96.50;;;;;;6339205;22;20022;-77
2022/08/20 10:47:22;;;;;;;8.70;2.33;;;22.90;96.30;;;;;;6339245;22;20003;-77
2022/08/20 10:49:51;;;;;;;5.82;2.10;;;23.00;96.80;;;;;;6337971;22;19999;-77
2022/08/20 10:52:17;;;;;;;7.88;2.67;;;23.20;97.40;;;;;;6338354;22;20431;-78
2022/08/20 10:54:43;;;;;;;8.00;2.50;;;23.50;95.70;;;;;;6338883;22;20017;-77
2022/08/20 10:57:14;;;;;;;5.75;1.70;;;23.70;96.20;;;;;;6338203;22;20009;-78
2022/08/20 10:59:43;;;;;;;5.78;2.30;;;23.90;96.40;;;;;;6338764;22;20002;-77
2022/08/20 11:02:08;;;;;;;12.40;3.20;;;24.20;95.10;;;;;;6337706;22;20423;-77
2022/08/20 11:04:34;;;;;;;7.72;2.55;;;24.20;95.00;;;;;;6339410;22;20133;-77
2022/08/20 11:07:23;;;;;;;11.05;2.55;;;24.30;95.60;;;;;;6338684;22;19995;-77
2022/08/20 11:09:49;;;;;;;7.50;2.47;;;24.20;95.80;;;;;;6338243;22;20421;-78
2022/08/20 11:12:17;;;;;;;7.80;2.47;;;24.10;95.10;;;;;;6338605;22;20005;-77
2022/08/20 11:14:43;;;;;;;7.20;2.05;;;23.90;95.40;;;;;;6338589;22;20006;-77
2022/08/20 11:17:09;;;;;;;14.50;2.40;;;23.90;94.40;;;;;;6310021;22;19999;-78
2022/08/20 11:19:43;;;;;;;11.02;2.83;;;23.90;94.80;;;;;;6338859;22;20011;-77
2022/08/20 11:22:09;;;;;;;6.97;2.25;;;23.90;95.20;;;;;;6338605;22;20006;-77
2022/08/20 11:24:35;;;;;;;11.10;2.28;;;23.90;95.50;;;;;;6337911;22;20022;-77
2022/08/20 11:27:04;;;;;;;12.13;3.72;;;23.90;95.10;;;;;;6338633;22;20430;-77
2022/08/20 11:29:30;;;;;;;7.65;2.00;;;23.90;95.00;;;;;;6338370;22;20430;-76
2022/08/20 11:31:55;;;;;;;8.13;2.42;;;23.80;95.10;;;;;;6338071;22;20033;-77
2022/08/20 11:34:21;;;;;;;6.53;1.90;;;23.90;95.00;;;;;;6338305;22;20423;-77
2022/08/20 11:36:47;;;;;;;7.30;1.92;;;24.10;94.80;;;;;;6338811;22;20003;-78
2022/08/20 11:39:13;;;;;;;8.77;2.17;;;24.10;94.30;;;;;;6337131;22;20438;-77
2022/08/20 11:41:39;;;;;;;8.93;1.88;;;24.30;94.20;;;;;;6338584;22;20003;-77
2022/08/20 11:44:05;;;;;;;6.32;1.75;;;24.40;94.00;;;;;;6337916;22;20017;-77
2022/08/20 11:46:34;;;;;;;6.60;1.95;;;24.20;93.60;;;;;;6336145;22;19999;-77
2022/08/20 11:48:59;;;;;;;5.95;1.58;;;24.30;94.10;;;;;;6338739;22;20013;-78
2022/08/20 11:51:25;;;;;;;6.55;2.08;;;24.40;94.80;;;;;;6337529;22;19999;-77
2022/08/20 11:53:51;;;;;;;7.32;2.05;;;24.70;95.10;;;;;;6338319;22;20002;-78
2022/08/20 11:56:17;;;;;;;7.03;2.35;;;25.00;93.80;;;;;;6338356;22;20003;-77
2022/08/20 11:58:43;;;;;;;4.32;1.80;;;25.00;92.80;;;;;;6337667;22;20319;-77
2022/08/20 12:01:08;;;;;;;5.85;1.63;;;24.80;93.10;;;;;;6338387;22;19999;-78
2022/08/20 12:03:35;;;;;;;7.57;2.10;;;24.70;93.90;;;;;;6338276;22;20038;-78
2022/08/20 12:06:00;;;;;;;5.45;1.63;;;24.80;94.20;;;;;;6337897;22;19999;-77
2022/08/20 12:08:28;;;;;;;8.32;1.90;;;24.80;93.60;;;;;;6338008;22;19999;-78
2022/08/20 12:10:54;;;;;;;7.22;1.83;;;24.70;93.60;;;;;;6339207;22;20007;-79
2022/08/20 12:13:21;;;;;;;8.50;1.70;;;24.90;93.30;;;;;;6337889;22;20056;-78
2022/08/20 12:15:49;;;;;;;7.45;2.17;;;24.90;93.60;;;;;;6339066;22;20360;-79
2022/08/20 12:18:15;;;;;;;5.00;1.75;;;25.00;93.60;;;;;;6338816;22;20073;-79
2022/08/20 12:20:40;;;;;;;8.45;1.88;;;25.00;93.80;;;;;;6346352;22;20005;-78
2022/08/20 12:23:06;;;;;;;9.68;2.20;;;25.00;93.90;;;;;;6352915;22;20431;-78
2022/08/20 12:25:32;;;;;;;10.23;2.05;;;25.10;93.50;;;;;;6352980;22;20026;-79
2022/08/20 12:27:58;;;;;;;5.90;2.08;;;25.10;93.80;;;;;;6357773;22;20029;-78
2022/08/20 12:30:24;;;;;;;6.13;1.75;;;25.10;94.00;;;;;;6353520;22;20020;-79
2022/08/20 12:32:50;;;;;;;9.02;2.20;;;25.10;93.60;;;;;;6352941;22;19998;-79
2022/08/20 12:35:18;;;;;;;7.68;2.25;;;25.00;93.70;;;;;;6347172;22;20010;-78
2022/08/20 12:37:44;;;;;;;8.77;3.33;;;24.80;94.10;;;;;;6345474;22;20025;-79
2022/08/20 12:40:14;;;;;;;9.60;2.00;;;24.70;94.10;;;;;;6339777;22;20045;-78
2022/08/20 12:42:40;;;;;;;7.18;1.80;;;24.60;94.10;;;;;;6340834;22;20003;-78
2022/08/20 12:45:06;;;;;;;7.47;2.78;;;24.40;94.90;;;;;;6343057;22;20007;-77
2022/08/20 12:47:35;;;;;;;9.63;3.35;;;24.20;95.20;;;;;;6337498;22;20002;-79
2022/08/20 12:50:08;;;;;;;11.23;2.25;;;24.10;95.90;;;;;;6338584;22;20046;-78
2022/08/20 12:52:34;;;;;;;8.52;2.53;;;24.10;96.70;;;;;;6338404;22;19999;-78
2022/08/20 12:55:00;;;;;;;5.72;2.38;;;24.10;97.40;;;;;;6337325;22;19995;-79